Аэропорт: Орск. Орск

ICAO: UWOR

METAR:
2021-04-21 21:00:00
UWOR 212100Z 22004MPS CAVOK M00/M03 Q1032 R07/CLRD65 NOSIG RMK QFE749/0999
METAR:
2021-04-21 19:52:00
TAF UWOR 211952Z 2121/2206 17005G13MPS 9999 SCT030 TX09/2206Z TNM02/2201Z TEMPO 2121/2206 15004G10MPS